sensor_id;sensor_type;location;lat;lon;timestamp;temperature;humidity
12761;DHT22;6444;49.742;6.114;2023-05-10T00:00:04;13.90;99.90
12761;DHT22;6444;49.742;6.114;2023-05-10T00:02:30;14.10;99.90
12761;DHT22;6444;49.742;6.114;2023-05-10T00:04:57;13.80;99.90
12761;DHT22;6444;49.742;6.114;2023-05-10T00:07:24;14.20;99.90
12761;DHT22;6444;49.742;6.114;2023-05-10T00:09:50;13.70;99.90
12761;DHT22;6444;49.742;6.114;2023-05-10T00:12:17;13.10;99.90
12761;DHT22;6444;49.742;6.114;2023-05-10T00:14:43;13.10;99.90
12761;DHT22;6444;49.742;6.114;2023-05-10T00:17:10;13.10;99.90
12761;DHT22;6444;49.742;6.114;2023-05-10T00:19:37;13.20;99.90
12761;DHT22;6444;49.742;6.114;2023-05-10T00:22:03;13.10;99.90
12761;DHT22;6444;49.742;6.114;2023-05-10T00:24:30;13.30;99.90
12761;DHT22;6444;49.742;6.114;2023-05-10T00:26:57;13.20;99.90
12761;DHT22;6444;49.742;6.114;2023-05-10T00:29:23;13.30;99.90
12761;DHT22;6444;49.742;6.114;2023-05-10T00:31:50;13.20;99.90
12761;DHT22;6444;49.742;6.114;2023-05-10T00:34:16;13.20;99.90
12761;DHT22;6444;49.742;6.114;2023-05-10T00:36:43;13.20;99.90
12761;DHT22;6444;49.742;6.114;2023-05-10T00:39:10;13.00;99.90
12761;DHT22;6444;49.742;6.114;2023-05-10T00:41:37;13.20;99.90
12761;DHT22;6444;49.742;6.114;2023-05-10T00:44:04;13.20;99.90
12761;DHT22;6444;49.742;6.114;2023-05-10T00:46:30;13.30;99.90
12761;DHT22;6444;49.742;6.114;2023-05-10T00:48:57;13.30;99.90
12761;DHT22;6444;49.742;6.114;2023-05-10T00:51:24;13.10;99.90
12761;DHT22;6444;49.742;6.114;2023-05-10T00:53:50;13.50;99.90
12761;DHT22;6444;49.742;6.114;2023-05-10T00:56:17;13.50;99.90
12761;DHT22;6444;49.742;6.114;2023-05-10T00:58:44;13.50;99.90
12761;DHT22;6444;49.742;6.114;2023-05-10T01:01:10;13.10;99.90
12761;DHT22;6444;49.742;6.114;2023-05-10T01:03:37;13.20;99.90
12761;DHT22;6444;49.742;6.114;2023-05-10T01:06:03;13.20;99.90
12761;DHT22;6444;49.742;6.114;2023-05-10T01:08:31;13.30;99.90
12761;DHT22;6444;49.742;6.114;2023-05-10T01:10:57;13.30;99.90
12761;DHT22;6444;49.742;6.114;2023-05-10T01:13:33;13.30;99.90
12761;DHT22;6444;49.742;6.114;2023-05-10T01:15:59;13.10;99.90
12761;DHT22;6444;49.742;6.114;2023-05-10T01:18:26;13.30;99.90
12761;DHT22;6444;49.742;6.114;2023-05-10T01:20:57;13.30;99.90
12761;DHT22;6444;49.742;6.114;2023-05-10T01:26:07;13.40;99.90
12761;DHT22;6444;49.742;6.114;2023-05-10T01:29:22;13.40;99.90
12761;DHT22;6444;49.742;6.114;2023-05-10T01:31:22;13.80;99.90
12761;DHT22;6444;49.742;6.114;2023-05-10T01:34:06;13.80;99.90
12761;DHT22;6444;49.742;6.114;2023-05-10T01:36:43;13.90;99.90
12761;DHT22;6444;49.742;6.114;2023-05-10T01:39:23;13.40;99.90
12761;DHT22;6444;49.742;6.114;2023-05-10T01:42:03;14.00;99.90
12761;DHT22;6444;49.742;6.114;2023-05-10T01:44:35;14.00;99.90
12761;DHT22;6444;49.742;6.114;2023-05-10T01:47:13;13.80;99.90
12761;DHT22;6444;49.742;6.114;2023-05-10T01:49:47;14.00;99.90
12761;DHT22;6444;49.742;6.114;2023-05-10T01:52:14;15.20;99.90
12761;DHT22;6444;49.742;6.114;2023-05-10T01:54:41;15.10;99.90
12761;DHT22;6444;49.742;6.114;2023-05-10T01:57:06;14.90;99.90
12761;DHT22;6444;49.742;6.114;2023-05-10T01:59:34;15.00;99.90
12761;DHT22;6444;49.742;6.114;2023-05-10T02:01:59;15.00;99.90
12761;DHT22;6444;49.742;6.114;2023-05-10T02:04:26;14.90;99.90
12761;DHT22;6444;49.742;6.114;2023-05-10T02:06:52;14.80;99.90
12761;DHT22;6444;49.742;6.114;2023-05-10T02:09:20;14.70;99.90
12761;DHT22;6444;49.742;6.114;2023-05-10T02:11:46;15.30;99.90
12761;DHT22;6444;49.742;6.114;2023-05-10T02:14:12;14.80;99.90
12761;DHT22;6444;49.742;6.114;2023-05-10T02:16:39;14.60;99.90
12761;DHT22;6444;49.742;6.114;2023-05-10T02:19:06;14.50;99.90
12761;DHT22;6444;49.742;6.114;2023-05-10T02:21:32;15.20;99.90
12761;DHT22;6444;49.742;6.114;2023-05-10T02:23:59;15.20;99.90
12761;DHT22;6444;49.742;6.114;2023-05-10T02:26:26;15.00;99.90
12761;DHT22;6444;49.742;6.114;2023-05-10T02:28:52;15.50;99.90
12761;DHT22;6444;49.742;6.114;2023-05-10T02:31:19;16.00;99.90
12761;DHT22;6444;49.742;6.114;2023-05-10T02:33:45;16.20;99.90
12761;DHT22;6444;49.742;6.114;2023-05-10T02:36:12;16.50;99.90
12761;DHT22;6444;49.742;6.114;2023-05-10T02:38:39;16.40;99.90
12761;DHT22;6444;49.742;6.114;2023-05-10T02:41:07;16.10;99.90
12761;DHT22;6444;49.742;6.114;2023-05-10T02:43:33;16.00;99.90
12761;DHT22;6444;49.742;6.114;2023-05-10T02:45:59;15.30;99.90
12761;DHT22;6444;49.742;6.114;2023-05-10T02:48:26;15.40;99.90
12761;DHT22;6444;49.742;6.114;2023-05-10T02:50:53;15.10;99.90
12761;DHT22;6444;49.742;6.114;2023-05-10T02:53:23;15.20;99.90
12761;DHT22;6444;49.742;6.114;2023-05-10T02:55:50;15.20;99.90
12761;DHT22;6444;49.742;6.114;2023-05-10T02:58:17;14.50;99.90
12761;DHT22;6444;49.742;6.114;2023-05-10T03:00:43;14.40;99.90
12761;DHT22;6444;49.742;6.114;2023-05-10T03:03:10;14.70;99.90
12761;DHT22;6444;49.742;6.114;2023-05-10T03:05:37;15.10;99.90
12761;DHT22;6444;49.742;6.114;2023-05-10T03:08:03;15.10;99.90
12761;DHT22;6444;49.742;6.114;2023-05-10T03:10:31;14.40;99.90
12761;DHT22;6444;49.742;6.114;2023-05-10T03:18:09;14.00;99.90
12761;DHT22;6444;49.742;6.114;2023-05-10T03:20:50;13.70;99.90
12761;DHT22;6444;49.742;6.114;2023-05-10T03:23:20;14.40;99.90
12761;DHT22;6444;49.742;6.114;2023-05-10T03:25:43;14.40;99.90
12761;DHT22;6444;49.742;6.114;2023-05-10T03:28:09;14.80;99.90
12761;DHT22;6444;49.742;6.114;2023-05-10T03:30:36;15.00;99.90
12761;DHT22;6444;49.742;6.114;2023-05-10T03:33:05;15.30;99.90
12761;DHT22;6444;49.742;6.114;2023-05-10T03:35:35;14.40;99.90
12761;DHT22;6444;49.742;6.114;2023-05-10T03:38:01;14.00;99.90
12761;DHT22;6444;49.742;6.114;2023-05-10T03:40:28;13.80;99.90
12761;DHT22;6444;49.742;6.114;2023-05-10T03:43:00;14.40;99.90
12761;DHT22;6444;49.742;6.114;2023-05-10T03:45:27;14.80;99.90
12761;DHT22;6444;49.742;6.114;2023-05-10T03:47:54;14.80;99.90
12761;DHT22;6444;49.742;6.114;2023-05-10T03:50:21;15.10;99.90
12761;DHT22;6444;49.742;6.114;2023-05-10T03:52:47;14.60;99.90
12761;DHT22;6444;49.742;6.114;2023-05-10T03:55:14;15.00;99.90
12761;DHT22;6444;49.742;6.114;2023-05-10T03:57:40;15.00;99.90
12761;DHT22;6444;49.742;6.114;2023-05-10T04:00:07;14.70;99.90
12761;DHT22;6444;49.742;6.114;2023-05-10T04:02:34;14.70;99.90
12761;DHT22;6444;49.742;6.114;2023-05-10T04:05:01;13.90;99.90
12761;DHT22;6444;49.742;6.114;2023-05-10T04:07:28;13.80;99.90
12761;DHT22;6444;49.742;6.114;2023-05-10T04:09:54;13.80;99.90
12761;DHT22;6444;49.742;6.114;2023-05-10T04:12:21;13.90;99.90
12761;DHT22;6444;49.742;6.114;2023-05-10T04:14:48;14.00;99.90
12761;DHT22;6444;49.742;6.114;2023-05-10T04:17:15;13.90;99.90
12761;DHT22;6444;49.742;6.114;2023-05-10T04:19:42;13.80;99.90
12761;DHT22;6444;49.742;6.114;2023-05-10T04:22:08;13.50;99.90
12761;DHT22;6444;49.742;6.114;2023-05-10T04:24:35;13.50;99.90
12761;DHT22;6444;49.742;6.114;2023-05-10T04:27:02;13.30;99.90
12761;DHT22;6444;49.742;6.114;2023-05-10T04:29:28;13.10;99.90
12761;DHT22;6444;49.742;6.114;2023-05-10T04:31:55;12.80;99.90
12761;DHT22;6444;49.742;6.114;2023-05-10T04:34:21;12.80;99.90
12761;DHT22;6444;49.742;6.114;2023-05-10T04:36:48;12.70;99.90
12761;DHT22;6444;49.742;6.114;2023-05-10T04:39:15;12.70;99.90
12761;DHT22;6444;49.742;6.114;2023-05-10T04:41:41;13.00;99.90
12761;DHT22;6444;49.742;6.114;2023-05-10T04:44:08;13.00;99.90
12761;DHT22;6444;49.742;6.114;2023-05-10T04:46:35;14.10;99.90
12761;DHT22;6444;49.742;6.114;2023-05-10T04:49:02;14.00;99.90
12761;DHT22;6444;49.742;6.114;2023-05-10T04:51:29;14.10;99.90
12761;DHT22;6444;49.742;6.114;2023-05-10T04:53:56;14.50;99.90
12761;DHT22;6444;49.742;6.114;2023-05-10T04:56:23;14.50;99.90
12761;DHT22;6444;49.742;6.114;2023-05-10T04:58:49;14.10;99.90
12761;DHT22;6444;49.742;6.114;2023-05-10T05:01:16;13.60;99.90
12761;DHT22;6444;49.742;6.114;2023-05-10T05:03:42;13.70;99.90
12761;DHT22;6444;49.742;6.114;2023-05-10T05:06:10;13.40;99.90
12761;DHT22;6444;49.742;6.114;2023-05-10T05:08:36;13.40;99.90
12761;DHT22;6444;49.742;6.114;2023-05-10T05:11:03;14.00;99.90
12761;DHT22;6444;49.742;6.114;2023-05-10T05:13:30;14.90;99.90
12761;DHT22;6444;49.742;6.114;2023-05-10T05:15:59;14.90;99.90
12761;DHT22;6444;49.742;6.114;2023-05-10T05:18:24;15.00;99.90
12761;DHT22;6444;49.742;6.114;2023-05-10T05:20:50;15.60;99.90
12761;DHT22;6444;49.742;6.114;2023-05-10T05:23:17;14.90;99.90
12761;DHT22;6444;49.742;6.114;2023-05-10T05:25:44;14.60;99.90
12761;DHT22;6444;49.742;6.114;2023-05-10T05:28:10;14.90;99.90
12761;DHT22;6444;49.742;6.114;2023-05-10T05:30:37;14.70;99.90
12761;DHT22;6444;49.742;6.114;2023-05-10T05:33:04;14.60;99.90
12761;DHT22;6444;49.742;6.114;2023-05-10T05:35:30;14.80;99.90
12761;DHT22;6444;49.742;6.114;2023-05-10T05:37:57;15.00;99.90
12761;DHT22;6444;49.742;6.114;2023-05-10T05:40:23;14.40;99.90
12761;DHT22;6444;49.742;6.114;2023-05-10T05:42:50;14.30;99.90
12761;DHT22;6444;49.742;6.114;2023-05-10T05:45:17;14.60;99.90
12761;DHT22;6444;49.742;6.114;2023-05-10T05:47:43;14.60;99.90
12761;DHT22;6444;49.742;6.114;2023-05-10T05:50:10;14.80;99.90
12761;DHT22;6444;49.742;6.114;2023-05-10T05:52:37;15.00;99.90
12761;DHT22;6444;49.742;6.114;2023-05-10T05:55:03;15.40;99.90
12761;DHT22;6444;49.742;6.114;2023-05-10T05:57:30;15.40;99.90
12761;DHT22;6444;49.742;6.114;2023-05-10T05:59:56;15.40;99.90
12761;DHT22;6444;49.742;6.114;2023-05-10T06:02:23;15.60;99.90
12761;DHT22;6444;49.742;6.114;2023-05-10T06:04:50;15.70;99.90
12761;DHT22;6444;49.742;6.114;2023-05-10T06:07:17;15.60;99.90
12761;DHT22;6444;49.742;6.114;2023-05-10T06:09:44;15.60;99.90
12761;DHT22;6444;49.742;6.114;2023-05-10T06:12:10;15.50;99.90
12761;DHT22;6444;49.742;6.114;2023-05-10T06:14:38;15.70;99.90
12761;DHT22;6444;49.742;6.114;2023-05-10T06:17:04;15.70;99.90
12761;DHT22;6444;49.742;6.114;2023-05-10T06:19:31;14.60;99.90
12761;DHT22;6444;49.742;6.114;2023-05-10T06:21:58;14.50;99.90
12761;DHT22;6444;49.742;6.114;2023-05-10T06:24:25;14.10;99.90
12761;DHT22;6444;49.742;6.114;2023-05-10T06:26:52;14.10;99.90
12761;DHT22;6444;49.742;6.114;2023-05-10T06:29:18;14.00;99.90
12761;DHT22;6444;49.742;6.114;2023-05-10T06:31:45;14.10;99.90
12761;DHT22;6444;49.742;6.114;2023-05-10T06:34:12;14.50;99.90
12761;DHT22;6444;49.742;6.114;2023-05-10T06:36:39;14.40;99.90
12761;DHT22;6444;49.742;6.114;2023-05-10T06:39:05;14.00;99.90
12761;DHT22;6444;49.742;6.114;2023-05-10T06:41:32;14.10;99.90
12761;DHT22;6444;49.742;6.114;2023-05-10T06:43:59;15.50;99.90
12761;DHT22;6444;49.742;6.114;2023-05-10T06:46:26;15.40;99.90
12761;DHT22;6444;49.742;6.114;2023-05-10T06:48:53;16.10;99.90
12761;DHT22;6444;49.742;6.114;2023-05-10T06:51:20;15.80;99.90
12761;DHT22;6444;49.742;6.114;2023-05-10T06:53:46;15.40;99.90
12761;DHT22;6444;49.742;6.114;2023-05-10T06:56:13;15.00;99.90
12761;DHT22;6444;49.742;6.114;2023-05-10T06:58:39;15.10;99.90
12761;DHT22;6444;49.742;6.114;2023-05-10T07:01:06;14.50;99.90
12761;DHT22;6444;49.742;6.114;2023-05-10T07:03:32;14.30;99.90
12761;DHT22;6444;49.742;6.114;2023-05-10T07:06:03;14.40;99.90
12761;DHT22;6444;49.742;6.114;2023-05-10T07:08:32;14.70;99.90
12761;DHT22;6444;49.742;6.114;2023-05-10T07:11:02;14.70;99.90
12761;DHT22;6444;49.742;6.114;2023-05-10T07:13:29;14.60;99.90
12761;DHT22;6444;49.742;6.114;2023-05-10T07:15:55;14.60;99.90
12761;DHT22;6444;49.742;6.114;2023-05-10T07:18:22;14.50;99.90
12761;DHT22;6444;49.742;6.114;2023-05-10T07:20:49;14.40;99.90
12761;DHT22;6444;49.742;6.114;2023-05-10T07:23:16;14.70;99.90
12761;DHT22;6444;49.742;6.114;2023-05-10T07:25:44;15.00;99.90
12761;DHT22;6444;49.742;6.114;2023-05-10T07:28:09;15.30;99.90
12761;DHT22;6444;49.742;6.114;2023-05-10T07:30:36;15.00;99.90
12761;DHT22;6444;49.742;6.114;2023-05-10T07:33:02;14.80;99.90
12761;DHT22;6444;49.742;6.114;2023-05-10T07:35:29;14.60;99.90
12761;DHT22;6444;49.742;6.114;2023-05-10T07:37:55;14.70;99.90
12761;DHT22;6444;49.742;6.114;2023-05-10T07:40:22;15.00;99.90
12761;DHT22;6444;49.742;6.114;2023-05-10T07:42:49;15.60;99.90
12761;DHT22;6444;49.742;6.114;2023-05-10T07:45:15;16.40;99.90
12761;DHT22;6444;49.742;6.114;2023-05-10T07:47:42;17.80;99.90
12761;DHT22;6444;49.742;6.114;2023-05-10T07:50:09;20.00;99.90
12761;DHT22;6444;49.742;6.114;2023-05-10T07:52:35;22.60;99.90
12761;DHT22;6444;49.742;6.114;2023-05-10T07:55:02;21.20;99.90
12761;DHT22;6444;49.742;6.114;2023-05-10T07:57:28;19.10;99.90
12761;DHT22;6444;49.742;6.114;2023-05-10T07:59:55;17.10;99.90
12761;DHT22;6444;49.742;6.114;2023-05-10T08:02:22;15.70;99.90
12761;DHT22;6444;49.742;6.114;2023-05-10T08:04:48;14.80;99.90
12761;DHT22;6444;49.742;6.114;2023-05-10T08:07:15;14.40;99.90
12761;DHT22;6444;49.742;6.114;2023-05-10T08:09:42;14.10;99.90
12761;DHT22;6444;49.742;6.114;2023-05-10T08:12:08;13.90;99.90
12761;DHT22;6444;49.742;6.114;2023-05-10T08:14:35;14.30;99.90
12761;DHT22;6444;49.742;6.114;2023-05-10T08:17:02;14.50;99.90
12761;DHT22;6444;49.742;6.114;2023-05-10T08:19:28;14.30;99.90
12761;DHT22;6444;49.742;6.114;2023-05-10T08:21:55;14.00;99.90
12761;DHT22;6444;49.742;6.114;2023-05-10T08:24:22;14.30;99.90
12761;DHT22;6444;49.742;6.114;2023-05-10T08:26:48;14.80;99.90
12761;DHT22;6444;49.742;6.114;2023-05-10T08:29:15;14.20;99.90
12761;DHT22;6444;49.742;6.114;2023-05-10T08:31:42;14.20;99.90
12761;DHT22;6444;49.742;6.114;2023-05-10T08:34:09;14.20;99.90
12761;DHT22;6444;49.742;6.114;2023-05-10T08:36:35;14.40;99.90
12761;DHT22;6444;49.742;6.114;2023-05-10T08:39:02;14.60;99.90
12761;DHT22;6444;49.742;6.114;2023-05-10T08:41:29;14.60;99.90
12761;DHT22;6444;49.742;6.114;2023-05-10T08:43:55;14.90;99.90
12761;DHT22;6444;49.742;6.114;2023-05-10T08:46:22;15.50;99.90
12761;DHT22;6444;49.742;6.114;2023-05-10T08:48:49;15.40;99.90
12761;DHT22;6444;49.742;6.114;2023-05-10T08:51:19;15.00;99.90
12761;DHT22;6444;49.742;6.114;2023-05-10T08:53:45;14.90;99.90
12761;DHT22;6444;49.742;6.114;2023-05-10T08:56:11;14.50;99.90
12761;DHT22;6444;49.742;6.114;2023-05-10T08:58:38;14.20;99.90
12761;DHT22;6444;49.742;6.114;2023-05-10T09:01:04;14.00;99.90
12761;DHT22;6444;49.742;6.114;2023-05-10T09:03:31;14.00;99.90
12761;DHT22;6444;49.742;6.114;2023-05-10T09:05:58;14.40;99.90
12761;DHT22;6444;49.742;6.114;2023-05-10T09:08:25;15.10;99.90
12761;DHT22;6444;49.742;6.114;2023-05-10T09:10:52;15.10;99.90
12761;DHT22;6444;49.742;6.114;2023-05-10T09:13:18;15.90;99.90
12761;DHT22;6444;49.742;6.114;2023-05-10T09:15:45;16.10;99.90
12761;DHT22;6444;49.742;6.114;2023-05-10T09:18:12;16.40;99.90
12761;DHT22;6444;49.742;6.114;2023-05-10T09:20:38;16.30;99.90
12761;DHT22;6444;49.742;6.114;2023-05-10T09:23:05;16.20;99.90
12761;DHT22;6444;49.742;6.114;2023-05-10T09:25:31;16.30;99.90
12761;DHT22;6444;49.742;6.114;2023-05-10T09:28:00;16.40;99.90
12761;DHT22;6444;49.742;6.114;2023-05-10T09:30:30;16.10;99.90
12761;DHT22;6444;49.742;6.114;2023-05-10T09:32:57;15.40;99.90
12761;DHT22;6444;49.742;6.114;2023-05-10T09:35:24;15.30;99.90
12761;DHT22;6444;49.742;6.114;2023-05-10T09:37:50;15.80;99.90
12761;DHT22;6444;49.742;6.114;2023-05-10T09:40:17;16.30;99.90
12761;DHT22;6444;49.742;6.114;2023-05-10T09:42:50;17.00;99.90
12761;DHT22;6444;49.742;6.114;2023-05-10T09:45:10;18.20;99.90
12761;DHT22;6444;49.742;6.114;2023-05-10T09:47:36;19.50;99.90
12761;DHT22;6444;49.742;6.114;2023-05-10T09:50:03;19.70;99.90
12761;DHT22;6444;49.742;6.114;2023-05-10T09:52:30;18.90;99.90
12761;DHT22;6444;49.742;6.114;2023-05-10T09:54:56;18.70;99.90
12761;DHT22;6444;49.742;6.114;2023-05-10T09:57:23;19.50;99.90
12761;DHT22;6444;49.742;6.114;2023-05-10T09:59:49;19.30;99.90
12761;DHT22;6444;49.742;6.114;2023-05-10T10:02:16;19.80;99.90
12761;DHT22;6444;49.742;6.114;2023-05-10T10:04:43;19.60;99.90
12761;DHT22;6444;49.742;6.114;2023-05-10T10:07:10;19.00;99.90
12761;DHT22;6444;49.742;6.114;2023-05-10T10:09:37;18.90;99.90
12761;DHT22;6444;49.742;6.114;2023-05-10T10:12:03;18.30;99.90
12761;DHT22;6444;49.742;6.114;2023-05-10T10:14:30;17.60;99.90
12761;DHT22;6444;49.742;6.114;2023-05-10T10:16:57;17.70;99.90
12761;DHT22;6444;49.742;6.114;2023-05-10T10:19:23;18.00;99.90
12761;DHT22;6444;49.742;6.114;2023-05-10T10:21:50;18.20;99.90
12761;DHT22;6444;49.742;6.114;2023-05-10T10:24:16;18.90;99.90
12761;DHT22;6444;49.742;6.114;2023-05-10T10:26:43;19.10;99.90
12761;DHT22;6444;49.742;6.114;2023-05-10T10:29:23;19.00;99.90
12761;DHT22;6444;49.742;6.114;2023-05-10T10:31:51;18.50;99.90
12761;DHT22;6444;49.742;6.114;2023-05-10T10:34:25;18.50;99.90
12761;DHT22;6444;49.742;6.114;2023-05-10T10:36:50;17.60;99.90
12761;DHT22;6444;49.742;6.114;2023-05-10T10:39:17;17.40;99.90
12761;DHT22;6444;49.742;6.114;2023-05-10T10:41:50;16.60;99.90
12761;DHT22;6444;49.742;6.114;2023-05-10T10:52:15;16.20;99.90
12761;DHT22;6444;49.742;6.114;2023-05-10T10:54:39;16.20;99.90
12761;DHT22;6444;49.742;6.114;2023-05-10T10:57:12;16.40;99.90
12761;DHT22;6444;49.742;6.114;2023-05-10T10:59:43;16.70;99.90
12761;DHT22;6444;49.742;6.114;2023-05-10T11:02:10;17.10;99.90
12761;DHT22;6444;49.742;6.114;2023-05-10T11:04:43;17.70;99.90
12761;DHT22;6444;49.742;6.114;2023-05-10T11:07:18;17.70;99.90
12761;DHT22;6444;49.742;6.114;2023-05-10T11:09:46;17.60;99.90
12761;DHT22;6444;49.742;6.114;2023-05-10T11:12:11;18.30;99.90
12761;DHT22;6444;49.742;6.114;2023-05-10T11:14:39;19.70;99.90
12761;DHT22;6444;49.742;6.114;2023-05-10T11:17:27;19.60;99.90
12761;DHT22;6444;49.742;6.114;2023-05-10T11:20:09;20.10;99.90
12761;DHT22;6444;49.742;6.114;2023-05-10T11:22:32;18.90;99.90
12761;DHT22;6444;49.742;6.114;2023-05-10T11:24:59;18.80;99.90
12761;DHT22;6444;49.742;6.114;2023-05-10T11:27:26;18.70;99.90
12761;DHT22;6444;49.742;6.114;2023-05-10T11:29:52;18.20;99.90
12761;DHT22;6444;49.742;6.114;2023-05-10T11:32:19;18.60;99.90
12761;DHT22;6444;49.742;6.114;2023-05-10T11:34:47;19.20;99.90
12761;DHT22;6444;49.742;6.114;2023-05-10T11:37:13;19.20;99.90
12761;DHT22;6444;49.742;6.114;2023-05-10T11:39:45;20.10;99.90
12761;DHT22;6444;49.742;6.114;2023-05-10T11:42:06;21.00;99.90
12761;DHT22;6444;49.742;6.114;2023-05-10T11:44:33;21.80;99.90
12761;DHT22;6444;49.742;6.114;2023-05-10T11:47:02;21.80;99.90
12761;DHT22;6444;49.742;6.114;2023-05-10T11:49:26;21.30;99.90
12761;DHT22;6444;49.742;6.114;2023-05-10T11:51:53;22.00;99.90
12761;DHT22;6444;49.742;6.114;2023-05-10T11:54:19;21.90;99.90
12761;DHT22;6444;49.742;6.114;2023-05-10T11:56:46;20.80;99.90
12761;DHT22;6444;49.742;6.114;2023-05-10T11:59:13;19.60;99.90
12761;DHT22;6444;49.742;6.114;2023-05-10T12:01:39;19.70;99.90
12761;DHT22;6444;49.742;6.114;2023-05-10T12:04:06;19.20;99.90
12761;DHT22;6444;49.742;6.114;2023-05-10T12:06:34;19.20;99.90
12761;DHT22;6444;49.742;6.114;2023-05-10T12:09:01;19.30;99.90
12761;DHT22;6444;49.742;6.114;2023-05-10T12:11:26;19.60;99.90
12761;DHT22;6444;49.742;6.114;2023-05-10T12:13:53;19.30;99.90
12761;DHT22;6444;49.742;6.114;2023-05-10T12:16:20;19.10;99.90
12761;DHT22;6444;49.742;6.114;2023-05-10T12:18:49;18.50;99.90
12761;DHT22;6444;49.742;6.114;2023-05-10T12:21:15;17.90;99.90
12761;DHT22;6444;49.742;6.114;2023-05-10T12:23:42;17.60;99.90
12761;DHT22;6444;49.742;6.114;2023-05-10T12:26:09;17.60;99.90
12761;DHT22;6444;49.742;6.114;2023-05-10T12:28:36;18.00;99.90
12761;DHT22;6444;49.742;6.114;2023-05-10T12:31:02;17.90;99.90
12761;DHT22;6444;49.742;6.114;2023-05-10T12:33:35;18.00;99.90
12761;DHT22;6444;49.742;6.114;2023-05-10T12:36:01;18.40;99.90
12761;DHT22;6444;49.742;6.114;2023-05-10T12:38:40;18.90;99.90
12761;DHT22;6444;49.742;6.114;2023-05-10T12:41:07;18.70;99.90
12761;DHT22;6444;49.742;6.114;2023-05-10T12:43:33;18.30;99.90
12761;DHT22;6444;49.742;6.114;2023-05-10T12:46:11;18.40;99.90
12761;DHT22;6444;49.742;6.114;2023-05-10T12:48:35;19.40;99.90
12761;DHT22;6444;49.742;6.114;2023-05-10T12:51:01;19.10;99.90
12761;DHT22;6444;49.742;6.114;2023-05-10T12:53:28;20.00;99.90
12761;DHT22;6444;49.742;6.114;2023-05-10T12:55:55;20.10;99.90
12761;DHT22;6444;49.742;6.114;2023-05-10T12:58:22;21.70;99.90
12761;DHT22;6444;49.742;6.114;2023-05-10T13:00:49;21.60;99.90
12761;DHT22;6444;49.742;6.114;2023-05-10T13:03:15;22.50;99.90
12761;DHT22;6444;49.742;6.114;2023-05-10T13:05:42;22.30;99.90
12761;DHT22;6444;49.742;6.114;2023-05-10T13:08:08;20.90;99.90
12761;DHT22;6444;49.742;6.114;2023-05-10T13:10:35;20.90;99.90
12761;DHT22;6444;49.742;6.114;2023-05-10T13:13:02;21.70;99.90
12761;DHT22;6444;49.742;6.114;2023-05-10T13:15:28;22.10;99.90
12761;DHT22;6444;49.742;6.114;2023-05-10T13:17:55;22.40;99.90
12761;DHT22;6444;49.742;6.114;2023-05-10T13:20:22;22.50;99.90
12761;DHT22;6444;49.742;6.114;2023-05-10T13:22:48;22.30;99.90
12761;DHT22;6444;49.742;6.114;2023-05-10T13:25:15;22.10;99.90
12761;DHT22;6444;49.742;6.114;2023-05-10T13:27:42;21.00;99.90
12761;DHT22;6444;49.742;6.114;2023-05-10T13:30:09;20.90;99.90
12761;DHT22;6444;49.742;6.114;2023-05-10T13:32:35;21.50;99.90
12761;DHT22;6444;49.742;6.114;2023-05-10T13:35:02;21.90;99.90
12761;DHT22;6444;49.742;6.114;2023-05-10T13:37:32;22.20;99.90
12761;DHT22;6444;49.742;6.114;2023-05-10T13:39:59;22.20;99.90
12761;DHT22;6444;49.742;6.114;2023-05-10T13:42:25;22.50;99.90
12761;DHT22;6444;49.742;6.114;2023-05-10T13:44:53;20.10;99.90
12761;DHT22;6444;49.742;6.114;2023-05-10T13:47:19;20.00;99.90
12761;DHT22;6444;49.742;6.114;2023-05-10T13:49:46;19.80;99.90
12761;DHT22;6444;49.742;6.114;2023-05-10T13:52:12;20.70;99.90
12761;DHT22;6444;49.742;6.114;2023-05-10T13:54:39;20.10;99.90
12761;DHT22;6444;49.742;6.114;2023-05-10T13:57:06;19.40;99.90
12761;DHT22;6444;49.742;6.114;2023-05-10T13:59:33;19.30;99.90
12761;DHT22;6444;49.742;6.114;2023-05-10T14:02:00;18.50;99.90
12761;DHT22;6444;49.742;6.114;2023-05-10T14:04:26;18.30;99.90
12761;DHT22;6444;49.742;6.114;2023-05-10T14:06:53;18.40;99.90
12761;DHT22;6444;49.742;6.114;2023-05-10T14:09:20;18.50;99.90
12761;DHT22;6444;49.742;6.114;2023-05-10T14:11:46;19.00;99.90
12761;DHT22;6444;49.742;6.114;2023-05-10T14:14:13;19.70;99.90
12761;DHT22;6444;49.742;6.114;2023-05-10T14:16:43;20.60;99.90
12761;DHT22;6444;49.742;6.114;2023-05-10T14:19:09;21.40;99.90
12761;DHT22;6444;49.742;6.114;2023-05-10T14:21:35;22.00;99.90
12761;DHT22;6444;49.742;6.114;2023-05-10T14:24:02;22.20;99.90
12761;DHT22;6444;49.742;6.114;2023-05-10T14:26:29;21.20;99.90
12761;DHT22;6444;49.742;6.114;2023-05-10T14:28:55;21.10;99.90
12761;DHT22;6444;49.742;6.114;2023-05-10T14:31:22;21.50;99.90
12761;DHT22;6444;49.742;6.114;2023-05-10T14:33:49;21.30;99.90
12761;DHT22;6444;49.742;6.114;2023-05-10T14:36:15;20.90;99.90
12761;DHT22;6444;49.742;6.114;2023-05-10T14:38:42;20.10;99.90
12761;DHT22;6444;49.742;6.114;2023-05-10T14:41:08;19.30;99.90
12761;DHT22;6444;49.742;6.114;2023-05-10T14:43:35;18.60;99.90
12761;DHT22;6444;49.742;6.114;2023-05-10T14:46:02;18.30;99.90
12761;DHT22;6444;49.742;6.114;2023-05-10T14:48:28;17.90;99.90
12761;DHT22;6444;49.742;6.114;2023-05-10T14:50:55;17.70;99.90
12761;DHT22;6444;49.742;6.114;2023-05-10T14:53:22;17.80;99.90
12761;DHT22;6444;49.742;6.114;2023-05-10T14:55:48;17.90;99.90
12761;DHT22;6444;49.742;6.114;2023-05-10T14:58:15;17.70;99.90
12761;DHT22;6444;49.742;6.114;2023-05-10T15:00:41;17.80;99.90
12761;DHT22;6444;49.742;6.114;2023-05-10T15:03:08;17.90;99.90
12761;DHT22;6444;49.742;6.114;2023-05-10T15:05:35;17.90;99.90
12761;DHT22;6444;49.742;6.114;2023-05-10T15:08:01;17.90;99.90
12761;DHT22;6444;49.742;6.114;2023-05-10T15:10:28;17.90;99.90
12761;DHT22;6444;49.742;6.114;2023-05-10T15:12:55;18.20;99.90
12761;DHT22;6444;49.742;6.114;2023-05-10T15:15:22;18.10;99.90
12761;DHT22;6444;49.742;6.114;2023-05-10T15:17:49;18.70;99.90
12761;DHT22;6444;49.742;6.114;2023-05-10T15:20:15;18.70;99.90
12761;DHT22;6444;49.742;6.114;2023-05-10T15:22:42;18.60;99.90
12761;DHT22;6444;49.742;6.114;2023-05-10T15:25:09;18.40;99.90
12761;DHT22;6444;49.742;6.114;2023-05-10T15:27:36;18.40;99.90
12761;DHT22;6444;49.742;6.114;2023-05-10T15:30:03;19.20;99.90
12761;DHT22;6444;49.742;6.114;2023-05-10T15:32:29;19.60;99.90
12761;DHT22;6444;49.742;6.114;2023-05-10T15:34:56;19.50;99.90
12761;DHT22;6444;49.742;6.114;2023-05-10T15:37:22;20.20;99.90
12761;DHT22;6444;49.742;6.114;2023-05-10T15:39:49;19.70;99.90
12761;DHT22;6444;49.742;6.114;2023-05-10T15:42:16;19.30;99.90
12761;DHT22;6444;49.742;6.114;2023-05-10T15:44:42;19.50;99.90
12761;DHT22;6444;49.742;6.114;2023-05-10T15:47:09;19.40;99.90
12761;DHT22;6444;49.742;6.114;2023-05-10T15:49:36;18.80;99.90
12761;DHT22;6444;49.742;6.114;2023-05-10T15:52:02;18.50;99.90
12761;DHT22;6444;49.742;6.114;2023-05-10T15:54:29;18.40;99.90
12761;DHT22;6444;49.742;6.114;2023-05-10T15:56:55;18.40;99.90
12761;DHT22;6444;49.742;6.114;2023-05-10T15:59:22;18.80;99.90